< < Back
Terminal Aerodrome Forecast


Current Version              Previous Versions:   1  2  3  4  5  6  7  8  9  

Terminal Aerodrome Forecast

078
FTUS42 KTAE 291700
TAFABY
TAF
KABY 291739Z 2918/3018 18008KT P6SM SCT250
     FM300300 22003KT P6SM SCT020 SCT250
     FM300900 33006KT P6SM BKN025
     FM301300 34010KT P6SM SKC=

Latest METAR

950
SAUS70 KWBC 301400 RRF
MTRABY
METAR KABY 301353Z 36009KT 10SM CLR 09/02 A3028 RMK AO2 SLP252
T00890022


USA.gov is the U.S. government's official web portal to all federal, state and local government web resources and services.